Time;durP1;ratioP1;P1;durP2;ratioP2;P2;SDS_P1;SDS_P2;PMS_P1;PMS_P2;Temp;Humidity;BMP_temperature;BMP_pressure;BME280_temperature;BME280_humidity;BME280_pressure;Samples;Min_cycle;Max_cycle;Signal;HPM_P1;HPM_P2
2020/12/25 00:00:52;;;;;;;4.95;1.75;;;4.00;99.90;;;;;;6162950;23;20017;-90
2020/12/25 00:03:39;;;;;;;10.55;1.73;;;4.10;99.90;;;;;;6163059;23;20439;-90
2020/12/25 00:06:14;;;;;;;4.50;1.08;;;4.10;99.90;;;;;;6161960;23;20060;-90
2020/12/25 00:08:53;;;;;;;6.05;1.35;;;4.00;99.90;;;;;;6161936;23;20025;-90
2020/12/25 00:11:36;;;;;;;;;;;4.00;99.90;;;;;;6162888;23;20080;-90
2020/12/25 00:14:14;;;;;;;4.90;1.40;;;4.00;99.90;;;;;;6162492;23;20574;-90
2020/12/25 00:16:52;;;;;;;7.65;1.50;;;3.90;99.90;;;;;;6162206;23;20025;-90
2020/12/25 00:19:28;;;;;;;7.85;1.42;;;3.90;99.90;;;;;;6162591;23;20394;-91
2020/12/25 00:22:05;;;;;;;5.18;1.02;;;3.90;99.90;;;;;;6162971;23;20033;-90
2020/12/25 00:24:41;;;;;;;5.32;0.90;;;3.90;99.90;;;;;;6162870;23;20021;-90
2020/12/25 00:27:19;;;;;;;7.32;1.17;;;3.90;99.90;;;;;;6162330;23;20013;-90
2020/12/25 00:29:54;;;;;;;9.43;1.30;;;3.90;99.90;;;;;;6161490;23;20041;-90
2020/12/25 00:32:29;;;;;;;7.32;1.50;;;3.90;99.90;;;;;;6161521;23;20454;-90
2020/12/25 00:35:05;;;;;;;5.35;1.80;;;3.80;99.90;;;;;;6185157;23;20021;-90
2020/12/25 00:37:41;;;;;;;4.47;1.67;;;3.80;99.90;;;;;;6163059;23;20445;-90
2020/12/25 00:40:21;;;;;;;5.15;1.02;;;3.80;99.90;;;;;;6164296;23;20109;-89
2020/12/25 00:42:57;;;;;;;4.18;1.52;;;3.80;99.90;;;;;;6164902;23;20021;-90
2020/12/25 00:45:35;;;;;;;5.95;1.60;;;3.80;99.90;;;;;;6164086;23;20017;-90
2020/12/25 00:48:11;;;;;;;8.43;2.03;;;3.70;99.90;;;;;;6163870;23;20088;-90
2020/12/25 00:50:48;;;;;;;7.35;1.70;;;3.70;99.90;;;;;;6187817;23;20017;-90
2020/12/25 00:53:25;;;;;;;7.53;1.70;;;3.70;99.90;;;;;;6163537;23;20017;-89
2020/12/25 00:56:02;;;;;;;13.57;1.77;;;3.60;99.90;;;;;;6163657;23;20448;-90
2020/12/25 00:58:38;;;;;;;6.72;1.30;;;3.60;99.90;;;;;;6163459;23;20017;-90
2020/12/25 01:01:15;;;;;;;5.18;1.55;;;3.60;99.90;;;;;;6163655;23;20063;-90
2020/12/25 01:03:48;;;;;;;6.53;1.40;;;3.50;99.90;;;;;;6163615;23;20459;-90
2020/12/25 01:06:26;;;;;;;4.68;1.50;;;3.50;99.90;;;;;;6163534;23;20457;-90
2020/12/25 01:09:02;;;;;;;6.40;1.88;;;3.50;99.90;;;;;;6164166;23;20017;-91
2020/12/25 01:11:41;;;;;;;8.93;2.20;;;3.50;99.90;;;;;;6187417;23;20064;-91
2020/12/25 01:14:18;;;;;;;7.72;2.58;;;3.50;99.90;;;;;;6163959;23;20373;-91
2020/12/25 01:16:57;;;;;;;11.48;1.75;;;3.50;99.90;;;;;;6164465;23;20333;-90
2020/12/25 01:19:30;;;;;;;6.50;1.60;;;3.50;99.90;;;;;;6186999;23;20109;-90
2020/12/25 01:22:05;;;;;;;6.38;1.75;;;3.50;99.90;;;;;;6188184;23;20032;-90
2020/12/25 01:24:45;;;;;;;4.60;1.80;;;3.60;99.90;;;;;;6163458;23;20088;-89
2020/12/25 01:27:20;;;;;;;6.57;1.35;;;3.60;99.90;;;;;;6163359;23;20024;-90
2020/12/25 01:29:59;;;;;;;7.25;1.75;;;3.60;99.90;;;;;;6163769;23;20085;-89
2020/12/25 01:32:34;;;;;;;6.28;1.23;;;3.70;99.90;;;;;;6162704;23;20021;-90
2020/12/25 01:35:14;;;;;;;8.88;1.60;;;3.70;99.90;;;;;;6163306;23;20017;-90
2020/12/25 01:37:59;;;;;;;3.00;1.25;;;3.70;99.90;;;;;;6164898;23;20028;-90
2020/12/25 01:40:31;;;;;;;6.82;1.50;;;3.70;99.90;;;;;;6163067;23;20083;-90
2020/12/25 01:43:03;;;;;;;6.55;1.27;;;3.80;99.90;;;;;;6162707;23;20048;-90
2020/12/25 01:45:42;;;;;;;6.88;1.42;;;3.80;99.90;;;;;;6186689;23;20013;-89
2020/12/25 01:48:20;;;;;;;4.63;1.38;;;3.80;99.90;;;;;;6163606;23;20016;-90
2020/12/25 01:50:57;;;;;;;4.28;1.38;;;3.80;99.90;;;;;;6163654;23;20028;-90
2020/12/25 01:53:33;;;;;;;3.30;1.20;;;3.90;99.90;;;;;;6162680;23;20013;-91
2020/12/25 01:56:09;;;;;;;2.28;1.27;;;3.90;99.90;;;;;;6163264;23;20021;-90
2020/12/25 01:58:48;;;;;;;5.97;1.27;;;3.90;99.90;;;;;;6163956;23;20021;-90
2020/12/25 02:01:24;;;;;;;8.13;1.45;;;3.90;99.90;;;;;;6163588;23;20097;-89
2020/12/25 02:03:59;;;;;;;10.68;2.05;;;3.90;99.90;;;;;;6163988;23;20093;-90
2020/12/25 02:06:41;;;;;;;6.60;1.27;;;3.90;99.90;;;;;;6163177;23;20020;-90
2020/12/25 02:09:26;;;;;;;6.07;1.30;;;3.90;99.90;;;;;;6162464;23;20322;-90
2020/12/25 02:12:00;;;;;;;5.22;1.10;;;3.90;99.90;;;;;;6162649;23;20017;-90
2020/12/25 02:14:34;;;;;;;7.70;1.90;;;3.90;99.90;;;;;;6163401;23;20017;-90
2020/12/25 02:17:11;;;;;;;7.63;1.40;;;3.80;99.90;;;;;;6163339;23;20017;-90
2020/12/25 02:19:49;;;;;;;4.23;1.33;;;3.80;99.90;;;;;;6163623;23;20033;-90
2020/12/25 02:22:29;;;;;;;2.80;1.20;;;3.80;99.90;;;;;;6163787;23;20017;-90
2020/12/25 02:25:14;;;;;;;6.10;1.10;;;3.80;99.90;;;;;;6164012;23;20716;-90
2020/12/25 02:27:56;;;;;;;3.67;1.08;;;3.80;99.90;;;;;;6163671;23;20023;-90
2020/12/25 02:30:33;;;;;;;5.15;2.05;;;3.80;99.90;;;;;;6162615;23;20028;-90
2020/12/25 02:33:11;;;;;;;3.80;1.25;;;3.80;99.90;;;;;;6162484;23;20044;-90
2020/12/25 02:35:50;;;;;;;8.02;1.20;;;3.80;99.90;;;;;;6163302;23;20332;-90
2020/12/25 02:38:26;;;;;;;4.78;1.65;;;3.80;99.90;;;;;;6162830;23;20024;-90
2020/12/25 02:41:02;;;;;;;6.70;1.40;;;3.80;99.90;;;;;;6162235;23;20075;-90
2020/12/25 02:43:42;;;;;;;2.55;1.00;;;3.80;99.90;;;;;;6162586;23;20437;-90
2020/12/25 02:46:21;;;;;;;5.55;1.25;;;3.70;99.90;;;;;;6187225;23;20024;-90
2020/12/25 02:49:02;;;;;;;5.05;1.33;;;3.70;99.90;;;;;;6163743;23;20072;-89
2020/12/25 02:51:39;;;;;;;9.63;1.50;;;3.70;99.90;;;;;;6163457;23;20025;-90
2020/12/25 02:54:15;;;;;;;4.35;1.08;;;3.70;99.90;;;;;;6162406;23;20017;-90
2020/12/25 02:56:51;;;;;;;8.73;1.48;;;3.70;99.90;;;;;;6162397;23;20021;-90
2020/12/25 02:59:27;;;;;;;3.13;1.17;;;3.60;99.90;;;;;;6161912;23;20101;-90
2020/12/25 03:02:00;;;;;;;11.15;1.20;;;3.60;99.90;;;;;;6162049;23;20441;-90
2020/12/25 03:04:36;;;;;;;2.47;1.17;;;3.60;99.90;;;;;;6162992;23;20043;-90
2020/12/25 03:07:11;;;;;;;6.47;1.63;;;3.60;99.90;;;;;;6163069;23;20025;-90
2020/12/25 03:09:46;;;;;;;9.98;1.67;;;3.60;99.90;;;;;;6161743;23;20013;-90
2020/12/25 03:12:20;;;;;;;5.30;1.48;;;3.50;99.90;;;;;;6162770;23;20017;-90
2020/12/25 03:15:00;;;;;;;3.20;1.25;;;3.50;99.90;;;;;;6163058;23;20023;-90
2020/12/25 03:17:38;;;;;;;8.32;1.45;;;3.50;99.90;;;;;;6162376;23;20041;-90
2020/12/25 03:20:13;;;;;;;4.90;1.47;;;3.50;99.90;;;;;;6162267;23;20017;-90
2020/12/25 03:22:50;;;;;;;3.47;1.30;;;3.50;99.90;;;;;;6162146;23;20067;-90
2020/12/25 03:25:30;;;;;;;4.20;1.17;;;3.50;99.90;;;;;;6162824;23;20025;-89
2020/12/25 03:28:08;;;;;;;9.33;1.40;;;3.50;99.90;;;;;;6162821;23;20036;-89
2020/12/25 03:30:49;;;;;;;3.25;1.20;;;3.50;99.90;;;;;;6162803;23;20386;-90
2020/12/25 03:33:28;;;;;;;6.60;1.30;;;3.50;99.90;;;;;;6186168;23;20025;-89
2020/12/25 03:36:04;;;;;;;4.78;1.10;;;3.50;99.90;;;;;;6161585;23;20013;-90
2020/12/25 03:38:43;;;;;;;6.68;1.50;;;3.50;99.90;;;;;;6163061;23;20553;-90
2020/12/25 03:41:20;;;;;;;3.90;1.10;;;3.60;99.90;;;;;;6162209;23;20131;-90
2020/12/25 03:43:54;;;;;;;4.25;1.17;;;3.60;99.90;;;;;;6162688;23;20104;-89
2020/12/25 03:46:35;;;;;;;4.00;1.30;;;3.50;99.90;;;;;;6162788;23;20017;-90
2020/12/25 03:49:10;;;;;;;4.30;1.30;;;3.50;99.90;;;;;;6187165;23;20075;-90
2020/12/25 03:51:46;;;;;;;4.63;1.63;;;3.40;99.90;;;;;;6186874;23;20017;-90
2020/12/25 03:54:19;;;;;;;4.70;1.30;;;3.40;99.90;;;;;;6162265;23;20024;-90
2020/12/25 03:56:55;;;;;;;5.38;1.60;;;3.30;99.90;;;;;;6162791;23;20021;-90
2020/12/25 03:59:34;;;;;;;3.15;1.45;;;3.30;99.90;;;;;;6162332;23;20099;-89
2020/12/25 04:02:09;;;;;;;5.00;2.00;;;3.20;99.90;;;;;;6161390;23;20103;-90
2020/12/25 04:04:45;;;;;;;3.55;1.48;;;3.20;99.90;;;;;;6162827;23;20055;-90
2020/12/25 04:07:20;;;;;;;7.03;1.60;;;3.20;99.90;;;;;;6162612;23;20024;-90
2020/12/25 04:09:56;;;;;;;6.97;1.73;;;3.20;99.90;;;;;;6162394;23;20017;-90
2020/12/25 04:12:29;;;;;;;6.40;2.17;;;3.20;99.90;;;;;;6164145;23;20318;-89
2020/12/25 04:15:06;;;;;;;4.22;1.55;;;3.20;99.90;;;;;;6164505;23;20026;-90
2020/12/25 04:17:41;;;;;;;4.95;1.65;;;3.20;99.90;;;;;;6163582;23;20368;-90
2020/12/25 04:20:15;;;;;;;4.53;1.83;;;3.20;99.90;;;;;;6164214;23;20021;-90
2020/12/25 04:22:50;;;;;;;6.65;1.70;;;3.20;99.90;;;;;;6164431;23;20025;-90
2020/12/25 04:25:26;;;;;;;6.93;1.73;;;3.20;99.90;;;;;;6164037;23;20047;-89
2020/12/25 04:28:01;;;;;;;9.07;2.05;;;3.20;99.90;;;;;;6164312;23;20441;-89
2020/12/25 04:30:35;;;;;;;6.65;1.60;;;3.20;99.90;;;;;;6163606;23;20017;-90
2020/12/25 04:33:09;;;;;;;6.40;1.40;;;3.20;99.90;;;;;;6163032;23;20033;-90
2020/12/25 04:35:44;;;;;;;8.52;1.95;;;3.20;99.90;;;;;;6162352;23;20098;-90
2020/12/25 04:38:18;;;;;;;4.93;1.90;;;3.20;99.90;;;;;;6164382;23;20041;-90
2020/12/25 04:40:58;;;;;;;;;;;3.20;99.90;;;;;;6165935;23;20019;-90
2020/12/25 04:43:36;;;;;;;11.25;1.80;;;3.20;99.90;;;;;;6163943;23;19943;-89
2020/12/25 04:46:13;;;;;;;5.80;1.67;;;3.10;99.90;;;;;;6163436;23;20334;-90
2020/12/25 04:48:50;;;;;;;4.78;1.40;;;3.10;99.90;;;;;;6164280;23;20017;-90
2020/12/25 04:51:25;;;;;;;5.60;1.55;;;3.10;99.90;;;;;;6162547;23;20025;-90
2020/12/25 04:54:00;;;;;;;5.68;2.00;;;3.20;99.90;;;;;;6163254;23;20044;-90
2020/12/25 04:56:32;;;;;;;9.98;1.98;;;3.20;99.90;;;;;;6163090;23;20067;-90
2020/12/25 04:59:07;;;;;;;7.55;1.65;;;3.10;99.90;;;;;;6164080;23;20092;-89
2020/12/25 05:01:44;;;;;;;8.07;2.20;;;3.10;99.90;;;;;;6164196;23;20025;-90
2020/12/25 05:04:21;;;;;;;4.65;1.60;;;3.10;99.90;;;;;;6164871;23;20073;-89
2020/12/25 05:07:04;;;;;;;4.05;1.60;;;3.10;99.90;;;;;;6165223;23;20016;-90
2020/12/25 05:09:40;;;;;;;3.47;1.90;;;3.10;99.90;;;;;;6163740;23;20017;-90
2020/12/25 05:12:13;;;;;;;4.57;1.70;;;3.00;99.90;;;;;;6163420;23;20088;-89
2020/12/25 05:14:51;;;;;;;8.93;2.17;;;3.10;99.90;;;;;;6164608;23;20017;-90
2020/12/25 05:17:29;;;;;;;;;;;3.00;99.90;;;;;;6164211;23;20017;-90
2020/12/25 05:20:09;;;;;;;4.50;1.50;;;3.00;99.90;;;;;;6164578;23;20336;-90
2020/12/25 05:22:47;;;;;;;7.03;1.90;;;3.00;99.90;;;;;;6164016;23;20024;-89
2020/12/25 05:25:23;;;;;;;2.92;1.40;;;2.90;99.90;;;;;;6163841;23;20021;-90
2020/12/25 05:27:58;;;;;;;4.22;1.40;;;2.90;99.90;;;;;;6163830;23;20449;-89
2020/12/25 05:30:32;;;;;;;6.95;1.48;;;2.90;99.90;;;;;;6163531;23;20025;-90
2020/12/25 05:33:14;;;;;;;4.15;1.40;;;2.90;99.90;;;;;;6187790;23;20021;-90
2020/12/25 05:35:52;;;;;;;7.65;1.48;;;2.90;99.90;;;;;;6161897;23;20017;-90
2020/12/25 05:38:29;;;;;;;7.18;2.58;;;2.90;99.90;;;;;;6163172;23;20047;-90
2020/12/25 05:41:01;;;;;;;4.88;1.38;;;2.90;99.90;;;;;;6163244;23;20433;-89
2020/12/25 05:43:46;;;;;;;5.18;1.45;;;3.00;99.90;;;;;;6164413;23;20055;-89
2020/12/25 05:46:27;;;;;;;5.43;1.35;;;3.00;99.90;;;;;;6165005;23;20036;-89
2020/12/25 05:49:03;;;;;;;5.10;1.95;;;3.10;99.90;;;;;;6164054;23;20460;-90
2020/12/25 05:51:55;;;;;;;4.10;1.38;;;3.10;99.90;;;;;;6163358;23;20029;-90
2020/12/25 05:54:29;;;;;;;3.78;1.10;;;3.20;99.90;;;;;;6163470;23;20045;-90
2020/12/25 05:57:04;;;;;;;7.88;1.30;;;3.20;99.90;;;;;;6163878;23;20017;-90
2020/12/25 05:59:47;;;;;;;7.53;1.42;;;3.20;99.90;;;;;;6163737;23;20029;-90
2020/12/25 06:02:26;;;;;;;7.45;1.30;;;3.30;99.90;;;;;;6163245;23;20045;-90
2020/12/25 06:05:02;;;;;;;4.03;1.33;;;3.30;99.90;;;;;;6164667;23;20020;-89
2020/12/25 06:07:47;;;;;;;5.38;1.45;;;3.30;99.90;;;;;;6164376;23;20021;-90
2020/12/25 06:10:27;;;;;;;4.90;1.42;;;3.30;99.90;;;;;;6165280;23;20121;-90
2020/12/25 06:13:02;;;;;;;8.23;1.40;;;3.30;99.90;;;;;;6164200;23;20017;-89
2020/12/25 06:15:38;;;;;;;7.80;1.75;;;3.20;99.90;;;;;;6163681;23;20021;-90
2020/12/25 06:18:14;;;;;;;7.32;1.75;;;3.20;99.90;;;;;;6163715;23;20013;-90
2020/12/25 06:21:00;;;;;;;5.65;1.35;;;3.20;99.90;;;;;;6163269;23;20051;-90
2020/12/25 06:23:34;;;;;;;6.47;1.70;;;3.20;99.90;;;;;;6163262;23;20024;-89
2020/12/25 06:26:13;;;;;;;5.82;1.33;;;3.20;99.90;;;;;;6163173;23;20468;-89
2020/12/25 06:28:48;;;;;;;4.53;1.48;;;3.20;99.90;;;;;;6186583;23;20039;-89
2020/12/25 06:31:36;;;;;;;7.63;1.58;;;3.20;99.90;;;;;;6186928;23;20087;-90
2020/12/25 06:34:12;;;;;;;9.85;1.60;;;3.20;99.90;;;;;;6163402;23;20429;-90
2020/12/25 06:36:48;;;;;;;3.30;1.40;;;3.20;99.90;;;;;;6162704;23;20021;-90
2020/12/25 06:39:30;;;;;;;5.43;1.52;;;3.30;99.90;;;;;;6163552;23;20036;-90
2020/12/25 06:42:07;;;;;;;6.00;1.60;;;3.30;99.90;;;;;;6163755;23;20092;-90
2020/12/25 06:44:41;;;;;;;6.22;1.40;;;3.30;99.90;;;;;;6161200;23;20021;-89
2020/12/25 06:47:26;;;;;;;3.90;1.30;;;3.30;99.90;;;;;;6162711;23;20024;-90
2020/12/25 06:50:00;;;;;;;6.38;1.48;;;3.30;99.90;;;;;;6162362;23;20017;-90
2020/12/25 06:52:49;;;;;;;4.38;1.27;;;3.40;99.90;;;;;;6162313;23;20021;-90
2020/12/25 06:55:24;;;;;;;4.95;1.40;;;3.40;99.90;;;;;;6163058;23;20017;-90
2020/12/25 06:58:06;;;;;;;7.85;1.75;;;3.40;99.90;;;;;;6163026;23;20314;-90
2020/12/25 07:00:58;;;;;;;6.78;1.55;;;3.40;99.90;;;;;;6165159;23;20021;-90
2020/12/25 07:03:38;;;;;;;3.60;1.38;;;3.40;99.90;;;;;;6163028;23;20023;-90
2020/12/25 07:06:17;;;;;;;3.92;1.40;;;3.40;99.90;;;;;;6163230;23;20021;-90
2020/12/25 07:08:54;;;;;;;3.47;1.20;;;3.40;99.90;;;;;;6162573;23;20023;-90
2020/12/25 07:11:30;;;;;;;2.05;0.80;;;3.50;99.90;;;;;;6162880;23;20093;-89
2020/12/25 07:14:04;;;;;;;5.68;1.48;;;3.50;99.90;;;;;;6162254;23;20029;-89
2020/12/25 07:16:37;;;;;;;5.72;1.27;;;3.60;99.90;;;;;;6163217;23;20017;-90
2020/12/25 07:19:18;;;;;;;3.70;1.40;;;3.70;99.90;;;;;;6165185;23;20068;-89
2020/12/25 07:21:55;;;;;;;2.08;1.00;;;3.70;99.90;;;;;;6164117;23;20083;-90
2020/12/25 07:24:29;;;;;;;4.32;1.30;;;3.70;99.90;;;;;;6163933;23;20013;-89
2020/12/25 07:27:03;;;;;;;4.38;1.30;;;3.70;99.90;;;;;;6163036;23;20396;-90
2020/12/25 07:29:40;;;;;;;1.70;0.90;;;3.70;99.90;;;;;;6162928;23;20066;-90
2020/12/25 07:32:19;;;;;;;2.40;1.10;;;3.80;99.90;;;;;;6163146;23;20017;-90
2020/12/25 07:35:03;;;;;;;2.65;0.80;;;3.80;99.90;;;;;;6163750;23;20017;-90
2020/12/25 07:37:41;;;;;;;7.35;0.90;;;3.90;99.90;;;;;;6163641;23;20020;-90
2020/12/25 07:40:18;;;;;;;3.72;1.15;;;3.90;99.90;;;;;;6163678;23;20028;-90
2020/12/25 07:42:58;;;;;;;2.30;0.93;;;3.90;99.90;;;;;;6169273;23;20001;-90
2020/12/25 07:45:33;;;;;;;3.92;1.40;;;3.90;99.90;;;;;;6162666;23;20033;-89
2020/12/25 07:48:08;;;;;;;5.05;1.10;;;3.90;99.90;;;;;;6162831;23;20092;-89
2020/12/25 07:50:48;;;;;;;5.03;0.90;;;3.90;99.90;;;;;;6162524;23;20013;-89
2020/12/25 07:53:23;;;;;;;3.88;0.93;;;3.90;99.90;;;;;;6162210;23;20040;-89
2020/12/25 07:56:08;;;;;;;2.20;0.90;;;3.90;99.90;;;;;;6164484;23;20072;-89
2020/12/25 07:58:48;;;;;;;1.92;0.93;;;4.00;99.90;;;;;;6166453;23;20372;-90
2020/12/25 08:01:30;;;;;;;3.40;1.10;;;4.00;99.90;;;;;;6187855;23;20013;-90
2020/12/25 08:04:12;;;;;;;3.90;0.82;;;4.00;99.90;;;;;;6163865;23;20013;-90
2020/12/25 08:06:49;;;;;;;3.97;1.15;;;4.00;99.90;;;;;;6162950;23;20021;-90
2020/12/25 08:09:29;;;;;;;2.67;1.08;;;4.00;99.90;;;;;;6162202;23;20101;-90
2020/12/25 08:12:02;;;;;;;4.00;1.10;;;4.00;99.90;;;;;;6162503;23;20021;-90
2020/12/25 08:14:45;;;;;;;3.05;1.13;;;4.00;99.90;;;;;;6162841;23;20048;-90
2020/12/25 08:17:25;;;;;;;2.53;0.90;;;4.00;99.90;;;;;;6162525;23;20013;-90
2020/12/25 08:20:04;;;;;;;5.57;1.08;;;4.00;99.90;;;;;;6162360;23;20068;-91
2020/12/25 08:22:44;;;;;;;5.40;1.08;;;3.90;99.90;;;;;;6188452;23;20088;-89
2020/12/25 08:25:25;;;;;;;2.88;1.00;;;4.00;99.90;;;;;;6163496;23;20017;-91
2020/12/25 08:27:59;;;;;;;;;;;4.00;99.90;;;;;;6163454;23;20017;-88
2020/12/25 08:30:37;;;;;;;7.80;1.30;;;4.00;99.90;;;;;;6163372;23;19924;-90
2020/12/25 08:33:22;;;;;;;2.08;0.88;;;3.90;99.90;;;;;;6185916;23;20013;-90
2020/12/25 08:36:08;;;;;;;4.22;0.90;;;3.90;99.90;;;;;;6162917;23;20436;-90
2020/12/25 08:38:45;;;;;;;1.42;0.80;;;4.00;99.90;;;;;;6164133;23;20037;-90
2020/12/25 08:41:31;;;;;;;1.35;0.95;;;4.00;99.90;;;;;;6163422;23;20017;-90
2020/12/25 08:44:15;;;;;;;1.60;0.98;;;4.00;99.90;;;;;;6163864;23;20045;-91
2020/12/25 08:47:13;;;;;;;3.80;0.80;;;4.00;99.90;;;;;;6163979;23;20072;-88
2020/12/25 08:50:14;;;;;;;3.88;0.77;;;4.00;99.90;;;;;;6168124;23;20091;-90
2020/12/25 08:52:51;;;;;;;3.33;0.80;;;4.00;99.90;;;;;;6163787;23;20151;-90
2020/12/25 08:55:33;;;;;;;3.30;1.10;;;4.10;99.90;;;;;;6164994;23;20070;-89
2020/12/25 08:58:07;;;;;;;3.10;0.93;;;4.10;99.90;;;;;;6162822;23;20017;-90
2020/12/25 09:00:44;;;;;;;4.00;1.00;;;4.10;99.90;;;;;;6164046;23;20103;-90
2020/12/25 09:03:23;;;;;;;1.95;0.80;;;4.10;99.90;;;;;;6164181;23;20047;-90
2020/12/25 09:06:08;;;;;;;3.45;0.85;;;4.20;99.90;;;;;;6164589;23;20013;-90
2020/12/25 09:08:43;;;;;;;4.13;1.13;;;4.20;99.90;;;;;;6164106;23;20389;-90
2020/12/25 09:11:22;;;;;;;1.50;0.95;;;4.20;99.90;;;;;;6165231;23;20088;-90
2020/12/25 09:13:55;;;;;;;8.88;1.55;;;4.20;99.90;;;;;;6164803;23;20068;-90
2020/12/25 09:16:33;;;;;;;3.70;1.23;;;4.30;99.90;;;;;;6163999;23;20227;-90
2020/12/25 09:19:08;;;;;;;6.10;2.15;;;4.30;99.90;;;;;;6164644;23;20369;-90
2020/12/25 09:21:46;;;;;;;2.10;1.17;;;4.30;99.90;;;;;;6164304;23;20017;-90
2020/12/25 09:24:21;;;;;;;2.80;0.90;;;4.40;99.90;;;;;;6164647;23;20334;-90
2020/12/25 09:26:56;;;;;;;3.53;1.13;;;4.40;99.90;;;;;;6162301;23;20028;-90
2020/12/25 09:29:30;;;;;;;2.92;0.93;;;4.50;99.90;;;;;;6163732;23;20065;-90
2020/12/25 09:32:04;;;;;;;2.95;1.35;;;4.50;99.90;;;;;;6163871;23;20040;-90
2020/12/25 09:34:44;;;;;;;1.85;0.90;;;4.60;99.90;;;;;;6164107;23;20507;-90
2020/12/25 09:37:27;;;;;;;6.10;1.05;;;4.60;99.90;;;;;;6188783;23;20028;-90
2020/12/25 09:40:17;;;;;;;4.68;1.30;;;4.60;99.90;;;;;;6165360;23;20040;-90
2020/12/25 09:42:57;;;;;;;3.53;1.30;;;4.60;99.90;;;;;;6164188;23;20071;-90
2020/12/25 09:45:33;;;;;;;5.82;1.08;;;4.60;99.90;;;;;;6165258;23;20017;-90
2020/12/25 09:51:45;;;;;;;3.05;1.10;;;4.70;99.90;;;;;;6190294;23;20322;-90
2020/12/25 09:54:20;;;;;;;6.15;1.20;;;4.80;99.90;;;;;;6164524;23;20052;-90
2020/12/25 09:56:58;;;;;;;1.98;1.10;;;4.80;99.90;;;;;;6165142;23;20081;-90
2020/12/25 09:59:36;;;;;;;2.63;1.02;;;4.80;99.90;;;;;;6163020;23;20071;-90
2020/12/25 10:02:12;;;;;;;1.65;0.90;;;4.90;99.90;;;;;;6164874;23;20021;-91
2020/12/25 10:04:53;;;;;;;3.42;0.90;;;4.90;99.90;;;;;;6166127;23;20096;-90
2020/12/25 10:07:36;;;;;;;2.83;1.00;;;4.90;99.90;;;;;;6164288;23;20017;-91
2020/12/25 10:10:15;;;;;;;4.45;1.10;;;5.00;99.90;;;;;;6164464;23;20329;-90
2020/12/25 10:12:55;;;;;;;3.22;1.10;;;5.00;99.90;;;;;;6188781;23;20021;-91
2020/12/25 10:15:36;;;;;;;3.40;1.40;;;5.10;99.90;;;;;;6164051;23;20033;-90
2020/12/25 10:18:14;;;;;;;3.45;1.00;;;5.10;99.90;;;;;;6164035;23;20348;-90
2020/12/25 10:21:00;;;;;;;3.15;0.80;;;5.20;99.90;;;;;;6165064;23;20024;-91
2020/12/25 10:23:40;;;;;;;5.50;0.95;;;5.20;99.90;;;;;;6164395;23;20013;-90
2020/12/25 10:26:18;;;;;;;2.45;1.27;;;5.30;99.90;;;;;;6163899;23;20056;-91
2020/12/25 10:28:58;;;;;;;3.25;1.05;;;5.30;99.90;;;;;;6163424;23;20017;-90
2020/12/25 10:31:39;;;;;;;3.00;0.90;;;5.30;99.90;;;;;;6163870;23;20031;-90
2020/12/25 10:34:20;;;;;;;4.90;1.05;;;5.40;99.90;;;;;;6165171;23;20369;-91
2020/12/25 10:37:00;;;;;;;4.43;1.10;;;5.40;99.90;;;;;;6165127;23;20021;-91
2020/12/25 10:39:35;;;;;;;4.15;1.10;;;5.50;99.90;;;;;;6163750;23;20013;-89
2020/12/25 10:42:14;;;;;;;4.80;1.30;;;5.50;99.90;;;;;;6164095;23;20025;-90
2020/12/25 10:44:48;;;;;;;2.78;1.08;;;5.60;99.90;;;;;;6163700;23;20091;-90
2020/12/25 10:47:27;;;;;;;4.82;1.27;;;5.60;99.90;;;;;;6163976;23;20100;-90
2020/12/25 10:50:08;;;;;;;3.35;1.20;;;5.70;99.90;;;;;;6164310;23;20325;-91
2020/12/25 10:52:46;;;;;;;3.05;1.10;;;5.70;99.90;;;;;;6187530;23;20040;-90
2020/12/25 10:55:26;;;;;;;4.85;1.30;;;5.80;99.90;;;;;;6164206;23;20017;-91
2020/12/25 10:58:06;;;;;;;3.55;1.15;;;5.80;99.90;;;;;;6187977;23;20380;-90
2020/12/25 11:00:45;;;;;;;5.18;1.40;;;5.80;99.90;;;;;;6163598;23;20457;-90
2020/12/25 11:03:23;;;;;;;3.58;1.10;;;5.90;99.90;;;;;;6163849;23;20017;-90
2020/12/25 11:06:02;;;;;;;3.63;1.23;;;5.90;99.90;;;;;;6163076;23;20052;-91
2020/12/25 11:08:42;;;;;;;3.00;1.02;;;6.00;99.90;;;;;;6163064;23;20024;-90
2020/12/25 11:11:32;;;;;;;3.92;1.23;;;6.00;99.90;;;;;;6187819;23;20017;-90
2020/12/25 11:14:11;;;;;;;4.60;1.00;;;6.00;99.90;;;;;;6164956;23;20125;-90
2020/12/25 11:16:56;;;;;;;3.72;1.40;;;6.10;99.90;;;;;;6164981;23;20256;-91
2020/12/25 11:19:34;;;;;;;1.58;0.90;;;6.10;99.90;;;;;;6164650;23;20024;-91
2020/12/25 11:22:19;;;;;;;2.95;1.05;;;6.20;99.90;;;;;;6187830;23;20426;-91
2020/12/25 11:25:00;;;;;;;7.18;1.17;;;6.20;99.90;;;;;;6165830;23;20017;-90
2020/12/25 11:27:43;;;;;;;2.15;1.05;;;6.30;99.90;;;;;;6165319;23;20020;-90
2020/12/25 11:30:24;;;;;;;4.32;1.10;;;6.30;99.90;;;;;;6164907;23;20017;-90
2020/12/25 11:33:00;;;;;;;6.93;1.20;;;6.30;99.90;;;;;;6163372;23;20013;-90
2020/12/25 11:35:39;;;;;;;3.10;1.27;;;6.30;99.90;;;;;;6186297;23;20044;-91
2020/12/25 11:38:19;;;;;;;5.03;1.33;;;6.40;99.90;;;;;;6163710;23;20103;-91
2020/12/25 11:41:13;;;;;;;3.10;1.20;;;6.40;99.90;;;;;;6186814;23;20049;-90
2020/12/25 11:43:51;;;;;;;5.25;1.30;;;6.50;99.90;;;;;;6187205;23;20091;-90
2020/12/25 11:46:31;;;;;;;2.05;1.05;;;6.60;99.90;;;;;;6187138;23;20013;-90
2020/12/25 11:49:12;;;;;;;3.92;1.25;;;6.60;99.90;;;;;;6187208;23;20086;-91
2020/12/25 11:51:57;;;;;;;4.75;1.08;;;6.70;99.90;;;;;;6164468;23;20021;-90
2020/12/25 11:54:36;;;;;;;4.03;1.00;;;6.80;99.90;;;;;;6163233;23;20328;-91
2020/12/25 11:57:23;;;;;;;3.70;1.00;;;6.80;99.90;;;;;;6164044;23;20017;-91
2020/12/25 12:00:00;;;;;;;3.85;1.10;;;6.90;99.90;;;;;;6186704;23;20032;-91
2020/12/25 12:02:39;;;;;;;5.22;1.00;;;6.90;99.90;;;;;;6162839;23;20096;-91
2020/12/25 12:05:22;;;;;;;4.00;1.00;;;7.00;99.90;;;;;;6163401;23;20425;-91
2020/12/25 12:08:21;;;;;;;2.30;0.80;;;7.00;99.90;;;;;;6164445;23;20028;-90
2020/12/25 12:11:00;;;;;;;2.60;0.88;;;7.00;99.90;;;;;;6186843;23;20036;-91
2020/12/25 12:13:43;;;;;;;4.70;0.70;;;7.10;99.90;;;;;;6164014;23;20428;-91
2020/12/25 12:16:21;;;;;;;4.63;0.80;;;7.10;99.90;;;;;;6163083;23;20071;-91
2020/12/25 12:19:00;;;;;;;3.23;1.13;;;7.10;99.90;;;;;;6163967;23;20021;-90
2020/12/25 12:21:43;;;;;;;3.53;1.00;;;7.10;99.90;;;;;;6162670;23;20044;-90
2020/12/25 12:24:30;;;;;;;4.35;1.00;;;7.10;99.90;;;;;;6162742;23;20013;-90
2020/12/25 12:27:20;;;;;;;5.85;0.88;;;7.20;99.90;;;;;;6164019;23;20052;-91
2020/12/25 12:30:02;;;;;;;4.32;1.10;;;7.20;99.90;;;;;;6163662;23;20020;-91
2020/12/25 12:32:34;;;;;;;;;;;7.20;99.90;;;;;;6163206;23;20045;-89
2020/12/25 12:35:16;;;;;;;7.57;1.20;;;7.30;99.90;;;;;;6164174;23;19992;-91
2020/12/25 12:37:55;;;;;;;2.88;0.90;;;7.30;99.90;;;;;;6188679;23;20024;-92
2020/12/25 12:40:39;;;;;;;3.38;0.70;;;7.30;99.90;;;;;;6165179;23;20040;-91
2020/12/25 12:43:24;;;;;;;5.85;1.10;;;7.40;99.90;;;;;;6165888;23;20020;-91
2020/12/25 12:45:58;;;;;;;;;;;7.40;99.90;;;;;;6188572;23;20092;-91
2020/12/25 12:48:37;;;;;;;4.53;0.80;;;7.40;99.90;;;;;;6164601;23;19916;-91
2020/12/25 12:51:18;;;;;;;5.57;0.80;;;7.40;99.90;;;;;;6164221;23;20017;-91
2020/12/25 12:54:02;;;;;;;3.58;0.77;;;7.30;99.90;;;;;;6163794;23;20056;-91
2020/12/25 12:56:40;;;;;;;4.78;1.00;;;7.30;99.90;;;;;;6163819;23;20067;-91
2020/12/25 12:59:28;;;;;;;2.33;0.50;;;7.30;99.90;;;;;;6166218;23;20033;-91
2020/12/25 13:02:07;;;;;;;4.95;0.60;;;7.30;99.90;;;;;;6165109;23;20329;-91
2020/12/25 13:04:36;;;;;;;2.95;0.98;;;7.20;99.90;;;;;;6163444;23;20052;-91
2020/12/25 13:07:05;;;;;;;4.63;0.77;;;7.30;99.90;;;;;;6163082;23;20028;-91
2020/12/25 13:09:36;;;;;;;3.30;0.80;;;7.30;99.90;;;;;;6163500;23;20029;-91
2020/12/25 13:12:13;;;;;;;2.90;0.80;;;7.30;99.90;;;;;;6163901;23;20095;-90
2020/12/25 13:14:47;;;;;;;;;;;7.40;99.90;;;;;;6163316;23;20017;-91
2020/12/25 13:17:28;;;;;;;5.97;1.02;;;7.30;99.90;;;;;;6163795;23;20277;-91
2020/12/25 13:20:11;;;;;;;5.30;0.50;;;7.30;99.90;;;;;;6165159;23;20025;-90
2020/12/25 13:22:59;;;;;;;3.70;0.90;;;7.30;99.90;;;;;;6189056;23;20044;-91
2020/12/25 13:25:41;;;;;;;5.20;0.82;;;7.30;99.90;;;;;;6165551;23;20017;-91
2020/12/25 13:28:26;;;;;;;3.83;0.52;;;7.30;99.90;;;;;;6165476;23;20021;-90
2020/12/25 13:31:08;;;;;;;3.75;0.60;;;7.30;99.90;;;;;;6163745;23;20017;-91
2020/12/25 13:33:44;;;;;;;6.40;0.80;;;7.30;99.90;;;;;;6164962;23;20032;-90
2020/12/25 13:36:20;;;;;;;2.97;0.50;;;7.30;99.90;;;;;;6187020;23;20024;-91
2020/12/25 13:38:56;;;;;;;3.17;0.80;;;7.20;99.90;;;;;;6163867;23;20024;-90
2020/12/25 13:41:36;;;;;;;2.00;0.50;;;7.20;99.90;;;;;;6163800;23;20135;-91
2020/12/25 13:44:23;;;;;;;2.05;0.45;;;7.20;99.90;;;;;;6164383;23;20021;-91
2020/12/25 13:47:03;;;;;;;3.75;0.80;;;7.10;99.90;;;;;;6164193;23;20021;-91
2020/12/25 13:49:45;;;;;;;4.38;0.63;;;7.10;99.90;;;;;;6165208;23;20079;-90
2020/12/25 13:52:29;;;;;;;4.43;1.10;;;7.10;99.90;;;;;;6164842;23;20017;-90
2020/12/25 13:55:07;;;;;;;1.77;0.50;;;7.10;99.90;;;;;;6164081;23;20020;-91
2020/12/25 13:57:45;;;;;;;1.77;0.60;;;7.10;99.90;;;;;;6163766;23;20017;-91
2020/12/25 14:00:34;;;;;;;3.67;0.63;;;7.10;99.90;;;;;;6165071;23;20031;-91